createdAt,value
2019-01-06T00:02:14.412Z,1.57
2019-01-06T00:05:03.988Z,1.46
2019-01-06T00:07:42.702Z,1.47
2019-01-06T00:10:30.649Z,1.43
2019-01-06T00:13:17.872Z,1.52
2019-01-06T00:16:14.679Z,1.54
2019-01-06T00:19:03.963Z,1.61
2019-01-06T00:22:03.599Z,1.39
2019-01-06T00:25:03.923Z,1.24
2019-01-06T00:28:01.081Z,1.24
2019-01-06T00:30:40.416Z,1.28
2019-01-06T00:33:31.433Z,1.36
2019-01-06T00:36:31.636Z,1.51
2019-01-06T00:39:18.094Z,1.57
2019-01-06T00:42:02.908Z,1.64
2019-01-06T00:44:47.375Z,1.58
2019-01-06T00:47:40.911Z,1.65
2019-01-06T00:50:27.762Z,1.73
2019-01-06T00:53:18.873Z,1.70
2019-01-06T00:56:05.460Z,1.72
2019-01-06T00:58:59.463Z,1.76
2019-01-06T01:02:05.450Z,1.61
2019-01-06T01:04:52.440Z,1.42
2019-01-06T01:07:58.706Z,1.17
2019-01-06T01:10:46.727Z,1.12
2019-01-06T01:13:50.251Z,1.32
2019-01-06T01:16:31.490Z,1.29
2019-01-06T01:19:25.199Z,1.29
2019-01-06T01:22:25.162Z,1.46
2019-01-06T01:25:28.642Z,1.60
2019-01-06T01:28:15.531Z,1.66
2019-01-06T01:31:01.987Z,1.70
2019-01-06T01:33:48.319Z,1.63
2019-01-06T01:36:36.223Z,1.69
2019-01-06T01:39:31.130Z,1.65
2019-01-06T01:42:24.130Z,1.41
2019-01-06T01:45:11.460Z,1.30
2019-01-06T01:47:57.547Z,1.20
2019-01-06T01:50:38.197Z,1.15
2019-01-06T01:53:27.180Z,1.16
2019-01-06T01:56:13.826Z,1.18
2019-01-06T01:58:55.118Z,1.18
2019-01-06T02:01:48.526Z,1.11
2019-01-06T02:04:42.105Z,1.16
2019-01-06T02:07:23.337Z,1.16
2019-01-06T02:10:05.803Z,1.34
2019-01-06T02:12:53.509Z,1.40
2019-01-06T02:15:47.513Z,1.41
2019-01-06T02:18:48.834Z,1.52
2019-01-06T02:21:34.753Z,1.45
2019-01-06T02:24:20.643Z,1.38
2019-01-06T02:27:22.614Z,1.30
2019-01-06T02:30:09.185Z,1.34
2019-01-06T02:33:03.196Z,1.35
2019-01-06T02:35:53.869Z,1.34
2019-01-06T02:38:52.333Z,1.40
2019-01-06T02:41:43.495Z,1.35
2019-01-06T02:44:37.421Z,1.23
2019-01-06T02:47:26.609Z,1.32
2019-01-06T02:50:10.527Z,1.23
2019-01-06T02:52:50.110Z,1.23
2019-01-06T02:55:43.998Z,1.17
2019-01-06T02:58:30.389Z,1.25
2019-01-06T03:01:27.340Z,1.18
2019-01-06T03:04:14.266Z,1.16
2019-01-06T03:07:04.708Z,1.10
2019-01-06T03:10:05.174Z,1.04
2019-01-06T03:12:51.564Z,0.68
2019-01-06T03:15:32.438Z,0.80
2019-01-06T03:18:35.988Z,0.62
2019-01-06T03:21:21.042Z,0.67
2019-01-06T03:24:07.751Z,0.79
2019-01-06T03:26:55.693Z,0.77
2019-01-06T03:29:43.355Z,0.87
2019-01-06T03:32:31.366Z,0.85
2019-01-06T03:35:13.731Z,0.79
2019-01-06T03:37:59.948Z,0.85
2019-01-06T03:41:06.047Z,0.91
2019-01-06T03:43:58.878Z,0.99
2019-01-06T03:46:53.530Z,1.10
2019-01-06T03:49:50.810Z,1.04
2019-01-06T03:52:41.942Z,1.00
2019-01-06T03:55:28.398Z,1.00
2019-01-06T03:58:11.063Z,0.93
2019-01-06T04:00:59.016Z,0.93
2019-01-06T04:03:46.014Z,1.04
2019-01-06T04:06:32.624Z,0.97
2019-01-06T04:09:27.120Z,1.09
2019-01-06T04:12:14.335Z,1.03
2019-01-06T04:15:01.346Z,0.85
2019-01-06T04:17:58.152Z,1.03
2019-01-06T04:20:51.978Z,0.99
2019-01-06T04:23:41.949Z,1.09
2019-01-06T04:26:29.078Z,1.02
2019-01-06T04:29:15.691Z,1.14
2019-01-06T04:32:03.066Z,1.21
2019-01-06T04:34:49.823Z,1.12
2019-01-06T04:37:37.505Z,1.12
2019-01-06T04:40:26.207Z,1.10
2019-01-06T04:43:16.772Z,1.09
2019-01-06T04:46:08.231Z,1.00
2019-01-06T04:49:06.047Z,0.86
2019-01-06T04:52:06.437Z,0.77
2019-01-06T04:54:56.124Z,0.76
2019-01-06T04:57:45.062Z,0.78
2019-01-06T05:00:31.988Z,0.75
2019-01-06T05:03:20.434Z,0.72
2019-01-06T05:06:07.142Z,0.57
2019-01-06T05:08:54.770Z,0.58
2019-01-06T05:11:43.836Z,0.59
2019-01-06T05:14:29.964Z,0.51
2019-01-06T05:17:17.050Z,0.51
2019-01-06T05:20:03.774Z,0.61
2019-01-06T05:22:51.699Z,0.58
2019-01-06T05:25:41.872Z,0.43
2019-01-06T05:28:23.172Z,0.30
2019-01-06T05:31:23.397Z,0.38
2019-01-06T05:34:26.399Z,0.43
2019-01-06T05:37:13.201Z,0.40
2019-01-06T05:40:00.864Z,0.49
2019-01-06T05:42:52.968Z,0.45
2019-01-06T05:45:32.303Z,0.49
2019-01-06T05:48:28.920Z,0.49
2019-01-06T05:51:15.857Z,0.46
2019-01-06T05:54:11.380Z,0.40
2019-01-06T05:56:58.952Z,0.30
2019-01-06T06:00:02.306Z,0.29
2019-01-06T06:02:55.934Z,0.47
2019-01-06T06:05:36.849Z,0.38
2019-01-06T06:08:20.537Z,0.22
2019-01-06T06:11:04.502Z,0.26
2019-01-06T06:13:48.126Z,0.23
2019-01-06T06:16:34.657Z,0.20
2019-01-06T06:19:17.285Z,0.15
2019-01-06T06:22:05.528Z,0.27
2019-01-06T06:24:51.997Z,0.33
2019-01-06T06:27:49.286Z,0.20
2019-01-06T06:30:33.234Z,0.31
2019-01-06T06:33:13.081Z,0.14
2019-01-06T06:35:59.995Z,-0.19
2019-01-06T06:38:46.804Z,-0.03
2019-01-06T06:41:31.512Z,0.00
2019-01-06T06:44:17.869Z,-0.06
2019-01-06T06:47:05.544Z,-0.02
2019-01-06T06:49:52.210Z,-0.05
2019-01-06T06:52:33.691Z,0.05
2019-01-06T06:55:20.618Z,0.07
2019-01-06T06:58:30.363Z,0.05
2019-01-06T07:01:51.372Z,-0.07
2019-01-06T07:04:53.493Z,-0.05
2019-01-06T07:07:40.774Z,-0.06
2019-01-06T07:10:43.547Z,-0.15
2019-01-06T07:13:41.099Z,-0.11
2019-01-06T07:17:04.386Z,-0.18
2019-01-06T07:19:54.977Z,-0.22
2019-01-06T07:22:55.470Z,-0.27
2019-01-06T07:25:39.976Z,-0.36
2019-01-06T07:28:31.553Z,-0.48
2019-01-06T07:31:13.782Z,-0.55
2019-01-06T07:34:01.433Z,-0.58
2019-01-06T07:36:49.472Z,-0.56
2019-01-06T07:39:46.367Z,-0.66
2019-01-06T07:42:40.401Z,-0.59
2019-01-06T07:45:48.562Z,-0.65
2019-01-06T07:48:34.386Z,-0.68
2019-01-06T07:51:15.733Z,-0.68
2019-01-06T07:53:57.576Z,-0.73
2019-01-06T07:57:03.741Z,-0.63
2019-01-06T07:59:52.705Z,-0.61
2019-01-06T08:02:34.355Z,-0.58
2019-01-06T08:05:22.336Z,-0.40
2019-01-06T08:08:22.513Z,-0.35
2019-01-06T08:11:16.952Z,-0.36
2019-01-06T08:14:04.276Z,-0.28
2019-01-06T08:16:50.880Z,-0.22
2019-01-06T08:19:37.691Z,-0.23
2019-01-06T08:22:24.400Z,-0.22
2019-01-06T08:25:10.194Z,-0.13
2019-01-06T08:28:09.360Z,-0.05
2019-01-06T08:30:57.324Z,-0.23
2019-01-06T08:33:44.027Z,-0.19
2019-01-06T08:36:31.209Z,-0.13
2019-01-06T08:39:28.612Z,-0.02
2019-01-06T08:42:12.247Z,0.04
2019-01-06T08:44:59.063Z,0.09
2019-01-06T08:47:45.569Z,0.14
2019-01-06T08:50:36.062Z,0.10
2019-01-06T08:53:23.728Z,0.15
2019-01-06T08:56:20.458Z,0.16
2019-01-06T08:59:13.970Z,0.28
2019-01-06T09:02:15.154Z,0.09
2019-01-06T09:04:54.080Z,-0.17
2019-01-06T09:07:42.019Z,-0.25
2019-01-06T09:10:32.697Z,0.10
2019-01-06T09:13:20.750Z,0.24
2019-01-06T09:16:06.786Z,0.10
2019-01-06T09:18:45.573Z,0.21
2019-01-06T09:21:33.468Z,0.31
2019-01-06T09:24:20.839Z,0.47
2019-01-06T09:27:09.503Z,0.56
2019-01-06T09:30:03.030Z,0.66
2019-01-06T09:32:49.941Z,0.73
2019-01-06T09:35:45.273Z,0.47
2019-01-06T09:38:32.193Z,0.70
2019-01-06T09:41:18.963Z,0.78
2019-01-06T09:44:22.318Z,0.50
2019-01-06T09:47:10.359Z,0.67
2019-01-06T09:49:58.908Z,0.76
2019-01-06T09:52:59.338Z,0.76
2019-01-06T09:55:56.187Z,0.80
2019-01-06T09:58:56.311Z,0.92
2019-01-06T10:01:53.003Z,0.97
2019-01-06T10:04:39.483Z,1.06
2019-01-06T10:07:36.513Z,1.11
2019-01-06T10:10:21.672Z,1.30
2019-01-06T10:13:21.598Z,1.55
2019-01-06T10:16:08.108Z,1.54
2019-01-06T10:18:54.912Z,1.75
2019-01-06T10:21:41.627Z,1.94
2019-01-06T10:24:22.847Z,2.09
2019-01-06T10:27:23.263Z,2.25
2019-01-06T10:30:09.549Z,2.39
2019-01-06T10:32:57.236Z,2.32
2019-01-06T10:35:50.667Z,2.37
2019-01-06T10:38:48.394Z,2.60
2019-01-06T10:41:36.640Z,2.84
2019-01-06T10:44:17.825Z,3.06
2019-01-06T10:47:20.831Z,3.12
2019-01-06T10:50:07.696Z,3.50
2019-01-06T10:53:06.310Z,3.70
2019-01-06T10:55:52.715Z,3.57
2019-01-06T10:58:38.910Z,3.16
2019-01-06T11:01:26.235Z,3.08
2019-01-06T11:04:16.707Z,3.31
2019-01-06T11:07:04.686Z,2.82
2019-01-06T11:10:04.750Z,2.66
2019-01-06T11:12:51.817Z,2.66
2019-01-06T11:15:42.928Z,2.97
2019-01-06T11:18:29.949Z,2.76
2019-01-06T11:21:22.330Z,2.77
2019-01-06T11:24:10.000Z,2.93
2019-01-06T11:27:05.373Z,2.85
2019-01-06T11:30:03.916Z,2.88
2019-01-06T11:32:51.443Z,2.88
2019-01-06T11:35:45.789Z,2.87
2019-01-06T11:38:47.079Z,2.83
2019-01-06T11:41:33.689Z,2.75
2019-01-06T11:44:40.264Z,2.61
2019-01-06T11:47:25.332Z,2.75
2019-01-06T11:50:18.598Z,2.70
2019-01-06T11:53:05.300Z,2.78
2019-01-06T11:56:02.561Z,2.65
2019-01-06T11:58:53.778Z,2.83
2019-01-06T12:01:33.887Z,2.99
2019-01-06T12:04:33.823Z,3.44
2019-01-06T12:07:20.073Z,4.07
2019-01-06T12:10:26.415Z,4.52
2019-01-06T12:13:13.023Z,4.54
2019-01-06T12:15:59.600Z,5.18
2019-01-06T12:18:47.876Z,5.50
2019-01-06T12:21:51.275Z,5.45
2019-01-06T12:24:51.581Z,5.87
2019-01-06T12:27:35.435Z,5.70
2019-01-06T12:30:23.432Z,5.80
2019-01-06T12:33:29.339Z,5.93
2019-01-06T12:36:16.242Z,6.17
2019-01-06T12:38:59.060Z,5.87
2019-01-06T12:41:46.089Z,5.96
2019-01-06T12:44:32.386Z,5.75
2019-01-06T12:47:27.085Z,6.23
2019-01-06T12:50:15.742Z,5.92
2019-01-06T12:53:12.593Z,5.97
2019-01-06T12:55:54.182Z,6.08
2019-01-06T12:58:42.525Z,5.51
2019-01-06T13:01:26.671Z,5.27
2019-01-06T13:04:14.918Z,5.27
2019-01-06T13:07:01.653Z,6.04
2019-01-06T13:09:55.708Z,5.15
2019-01-06T13:12:58.566Z,5.02
2019-01-06T13:15:58.177Z,4.56
2019-01-06T13:18:40.550Z,4.25
2019-01-06T13:21:26.865Z,4.03
2019-01-06T13:24:09.325Z,3.77
2019-01-06T13:26:56.240Z,3.76
2019-01-06T13:29:45.179Z,3.41
2019-01-06T13:32:33.139Z,3.30
2019-01-06T13:35:20.054Z,3.24
2019-01-06T13:38:11.471Z,3.08
2019-01-06T13:41:08.320Z,2.90
2019-01-06T13:44:05.277Z,2.77
2019-01-06T13:46:53.618Z,2.67
2019-01-06T13:49:47.600Z,2.56
2019-01-06T13:52:30.207Z,2.46
2019-01-06T13:55:17.024Z,2.39
2019-01-06T13:58:03.732Z,2.30
2019-01-06T14:00:50.632Z,2.35
2019-01-06T14:03:43.496Z,2.27
2019-01-06T14:06:48.594Z,2.26
2019-01-06T14:09:36.882Z,2.20
2019-01-06T14:12:13.558Z,2.15
2019-01-06T14:15:09.789Z,2.17
2019-01-06T14:17:52.342Z,2.09
2019-01-06T14:20:38.904Z,2.13
2019-01-06T14:23:27.154Z,2.19
2019-01-06T14:26:30.198Z,2.17
2019-01-06T14:29:18.240Z,2.17
2019-01-06T14:32:12.368Z,2.03
2019-01-06T14:35:00.715Z,2.06
2019-01-06T14:37:47.098Z,2.15
2019-01-06T14:40:33.628Z,2.17
2019-01-06T14:43:19.508Z,2.13
2019-01-06T14:46:16.870Z,2.16
2019-01-06T14:49:07.580Z,2.14
2019-01-06T14:51:56.435Z,2.19
2019-01-06T14:55:02.190Z,2.23
2019-01-06T14:57:48.999Z,2.26
2019-01-06T15:00:36.120Z,2.31
2019-01-06T15:03:26.931Z,2.25
2019-01-06T15:06:13.456Z,2.28
2019-01-06T15:09:13.040Z,2.21
2019-01-06T15:12:15.952Z,2.25
2019-01-06T15:15:10.623Z,2.26
2019-01-06T15:18:07.572Z,2.28
2019-01-06T15:21:04.335Z,2.18
2019-01-06T15:23:51.127Z,2.13
2019-01-06T15:26:41.848Z,2.06
2019-01-06T15:29:25.538Z,2.04
2019-01-06T15:32:11.354Z,2.10
2019-01-06T15:35:14.082Z,2.13
2019-01-06T15:37:53.523Z,2.13
2019-01-06T15:41:05.379Z,2.15
2019-01-06T15:43:52.504Z,2.14
2019-01-06T15:46:39.247Z,2.14
2019-01-06T15:49:23.868Z,2.18
2019-01-06T15:52:18.254Z,2.25
2019-01-06T15:55:18.421Z,2.30
2019-01-06T15:58:02.592Z,2.29
2019-01-06T16:00:47.355Z,2.41
2019-01-06T16:03:39.634Z,2.40
2019-01-06T16:06:26.382Z,2.44
2019-01-06T16:09:14.664Z,2.47
2019-01-06T16:12:08.452Z,2.49
2019-01-06T16:14:55.071Z,2.46
2019-01-06T16:17:41.881Z,2.48
2019-01-06T16:20:44.166Z,2.50
2019-01-06T16:23:30.567Z,2.57
2019-01-06T16:26:11.511Z,2.55
2019-01-06T16:29:02.245Z,2.57
2019-01-06T16:31:49.259Z,2.56
2019-01-06T16:34:40.268Z,2.60
2019-01-06T16:37:27.079Z,2.64
2019-01-06T16:40:13.392Z,2.62
2019-01-06T16:43:13.326Z,2.55
2019-01-06T16:46:16.495Z,2.53
2019-01-06T16:49:03.405Z,2.57
2019-01-06T16:51:50.244Z,2.56
2019-01-06T16:54:36.485Z,2.56
2019-01-06T16:57:16.924Z,2.60
2019-01-06T17:00:14.259Z,2.56
2019-01-06T17:02:51.976Z,2.56
2019-01-06T17:05:41.591Z,2.60
2019-01-06T17:08:32.935Z,2.56
2019-01-06T17:11:19.303Z,2.57
2019-01-06T17:14:05.959Z,2.59
2019-01-06T17:16:54.265Z,2.61
2019-01-06T17:19:36.945Z,2.63
2019-01-06T17:22:40.074Z,2.68
2019-01-06T17:25:33.361Z,2.70
2019-01-06T17:28:20.267Z,2.72
2019-01-06T17:31:14.306Z,2.77
2019-01-06T17:34:01.263Z,2.74
2019-01-06T17:37:07.255Z,2.69
2019-01-06T17:39:52.499Z,2.69
2019-01-06T17:42:47.398Z,2.74
2019-01-06T17:45:53.174Z,2.72
2019-01-06T17:48:33.826Z,2.74
2019-01-06T17:51:34.559Z,2.72
2019-01-06T17:54:22.859Z,2.79
2019-01-06T17:57:11.645Z,2.81
2019-01-06T17:59:58.370Z,2.81
2019-01-06T18:02:44.979Z,2.77
2019-01-06T18:05:32.640Z,2.77
2019-01-06T18:08:19.628Z,2.80
2019-01-06T18:11:01.936Z,2.85
2019-01-06T18:14:07.936Z,2.94
2019-01-06T18:16:52.454Z,2.95
2019-01-06T18:19:39.579Z,2.95
2019-01-06T18:22:25.811Z,2.98
2019-01-06T18:25:16.888Z,2.98
2019-01-06T18:28:04.112Z,2.98
2019-01-06T18:30:52.606Z,2.92
2019-01-06T18:33:39.565Z,2.90
2019-01-06T18:36:26.384Z,2.98
2019-01-06T18:39:13.222Z,2.99
2019-01-06T18:41:58.534Z,2.99
2019-01-06T18:44:44.795Z,3.00
2019-01-06T18:47:50.883Z,3.01
2019-01-06T18:50:38.566Z,3.09
2019-01-06T18:53:39.670Z,3.06
2019-01-06T18:56:26.523Z,2.95
2019-01-06T18:59:17.553Z,3.01
2019-01-06T19:02:02.139Z,3.08
2019-01-06T19:04:47.986Z,3.01
2019-01-06T19:07:40.730Z,3.09
2019-01-06T19:10:30.387Z,3.08
2019-01-06T19:13:21.727Z,3.23
2019-01-06T19:16:18.532Z,3.20
2019-01-06T19:19:05.799Z,3.28
2019-01-06T19:22:02.339Z,3.25
2019-01-06T19:24:56.317Z,3.22
2019-01-06T19:27:43.432Z,3.20
2019-01-06T19:30:29.988Z,3.34
2019-01-06T19:33:31.671Z,3.36
2019-01-06T19:36:37.658Z,3.29
2019-01-06T19:39:40.035Z,3.21
2019-01-06T19:42:23.982Z,3.28
2019-01-06T19:45:17.416Z,3.22
2019-01-06T19:48:03.871Z,3.36
2019-01-06T19:51:00.901Z,3.34
2019-01-06T19:53:44.638Z,3.28
2019-01-06T19:56:34.930Z,3.20
2019-01-06T19:59:26.045Z,3.22
2019-01-06T20:02:12.416Z,3.12
2019-01-06T20:04:56.650Z,3.07
2019-01-06T20:07:41.948Z,3.24
2019-01-06T20:10:35.955Z,3.17
2019-01-06T20:13:23.856Z,3.09
2019-01-06T20:16:18.387Z,3.15
2019-01-06T20:19:10.023Z,3.07
2019-01-06T20:22:13.812Z,3.16
2019-01-06T20:25:06.336Z,3.11
2019-01-06T20:27:57.456Z,3.23
2019-01-06T20:30:44.482Z,3.19
2019-01-06T20:33:38.125Z,3.21
2019-01-06T20:36:26.206Z,3.20
2019-01-06T20:39:31.407Z,3.13
2019-01-06T20:42:25.529Z,3.24
2019-01-06T20:45:32.313Z,3.22
2019-01-06T20:48:29.463Z,3.25
2019-01-06T20:51:18.587Z,3.20
2019-01-06T20:54:14.115Z,3.24
2019-01-06T20:57:00.962Z,3.19
2019-01-06T20:59:49.008Z,3.23
2019-01-06T21:02:45.641Z,3.22
2019-01-06T21:05:41.879Z,3.25
2019-01-06T21:08:18.709Z,3.31
2019-01-06T21:11:05.051Z,3.31
2019-01-06T21:14:06.999Z,3.31
2019-01-06T21:16:55.571Z,3.19
2019-01-06T21:19:40.434Z,3.19
2019-01-06T21:22:34.131Z,3.18
2019-01-06T21:25:21.123Z,3.17
2019-01-06T21:28:04.758Z,3.25
2019-01-06T21:30:51.987Z,3.27
2019-01-06T21:33:34.696Z,3.13
2019-01-06T21:36:22.343Z,3.14
2019-01-06T21:39:11.930Z,3.18
2019-01-06T21:41:56.669Z,3.08
2019-01-06T21:44:43.105Z,3.14
2019-01-06T21:47:29.647Z,3.20
2019-01-06T21:50:29.802Z,3.17
2019-01-06T21:53:23.398Z,3.17
2019-01-06T21:56:10.184Z,3.25
2019-01-06T21:58:56.475Z,3.20
2019-01-06T22:01:50.672Z,3.23
2019-01-06T22:04:37.271Z,3.29
2019-01-06T22:07:24.183Z,3.22
2019-01-06T22:10:20.570Z,3.23
2019-01-06T22:13:02.525Z,3.23
2019-01-06T22:15:49.434Z,3.36
2019-01-06T22:18:43.823Z,3.19
2019-01-06T22:21:51.120Z,3.32
2019-01-06T22:24:44.885Z,3.32
2019-01-06T22:27:45.936Z,3.19
2019-01-06T22:30:40.237Z,3.20
2019-01-06T22:33:36.822Z,3.18
2019-01-06T22:36:23.467Z,3.27
2019-01-06T22:39:10.385Z,3.19
2019-01-06T22:41:57.239Z,3.21
2019-01-06T22:45:03.562Z,3.25
2019-01-06T22:47:59.874Z,3.30
2019-01-06T22:51:06.370Z,3.35
2019-01-06T22:54:12.030Z,3.33
2019-01-06T22:57:04.060Z,3.32
2019-01-06T22:59:55.650Z,3.28
2019-01-06T23:02:43.110Z,3.19
2019-01-06T23:05:30.805Z,3.20
2019-01-06T23:08:30.820Z,3.19
2019-01-06T23:11:21.539Z,3.31
2019-01-06T23:14:08.375Z,3.20
2019-01-06T23:16:54.857Z,3.24
2019-01-06T23:19:39.791Z,3.17
2019-01-06T23:22:36.572Z,3.16
2019-01-06T23:25:23.408Z,3.13
2019-01-06T23:28:04.662Z,3.27
2019-01-06T23:30:48.531Z,3.25
2019-01-06T23:33:36.266Z,3.22
2019-01-06T23:36:22.666Z,3.25
2019-01-06T23:39:09.786Z,3.33
2019-01-06T23:42:07.348Z,3.30
2019-01-06T23:44:54.568Z,3.29
2019-01-06T23:47:42.461Z,3.35
2019-01-06T23:50:36.484Z,3.23
2019-01-06T23:53:30.298Z,3.27
2019-01-06T23:56:16.878Z,3.32
2019-01-06T23:59:16.892Z,3.31
